Linwood, MA (01525)

12:51 PM EDT on September 21, 2014 (GMT -0400)
Juniper Hills | Change Station
CLOSE
Current Station
Personal Weather Station
Location: Uxbridge, MA
Elevation: 358 ft
Nearby Weather Stations

Elev 358 ft 42.07 °N, 71.63 °W | Updated 8 seconds ago

Mostly Cloudy
Mostly Cloudy
78.6 °F
Feels Like 81 °F
N
0.9
Wind Variable Wind from SSE
Gusts 4.9 mph

Today
High -- | Low -- °F
--% Chance of Precip.
Yesterday
High -- | Low -- °F
Precip. -- in
6:32 AM 6:45 PM
Waning Crescent, 6% visible
Pressure 29.85 in
Visibility 9.0 miles
Clouds Few 1200 ft
Scattered Clouds 1900 ft
Mostly Cloudy 2800 ft
Heat Index 81 °F
Dew Point 71 °F
Humidity 78%
Rainfall 0.06 in
Snow Depth Not available.
UV 4 out of 12
Pollen 1.50 out of 12
PM2.5 Good
Flu Activity Not available.
METAR KSFZ 211635Z 18005G16KT 9SM FEW012 SCT019 BKN028 23/19 A2985 RMK AO1

More Conditions Fewer Conditions

Pressure 29.85 in
Visibility 9.0 miles
Clouds Few 1200 ft
Scattered Clouds 1900 ft
Mostly Cloudy 2800 ft
Heat Index 81 °F
Dew Point 71 °F
Humidity 78%
Rainfall 0.06 in
Snow Depth Not available.
UV 4 out of 12
Pollen 1.50 out of 12
PM2.5 Good
Flu Activity Not available.
METAR KSFZ 211635Z 18005G16KT 9SM FEW012 SCT019 BKN028 23/19 A2985 RMK AO1

More Conditions Fewer Conditions

10-Day Weather Forecast

Almanac

Astronomy

Sep. 21, 2014 Rise Set
Actual Time 6:32 AM EDT 6:45 PM EDT
Civil Twilight 6:04 AM EDT 7:13 PM EDT
Nautical Twilight 5:32 AM EDT 7:46 PM EDT
Astronomical Twilight 4:58 AM EDT 8:19 PM EDT
Moon 4:01 AM EDT 5:21 PM EDT
Length of Visible Light 13h 08m
Length of Day
12h 12m
Tomorrow will be 2m 48s shorter.
Waning Crescent, 6% of the Moon is Illuminated
Today
Waning Crescent
Sep 24
New
Oct 1
First Quarter
Oct 8
Full
Oct 15
Last Quarter

Today's Extremes

State Highs State Lows

Community

WunderPhotos

Upload Photos

1,755,186 photos uploaded!

Nearby

Air Quality

  Air Quality AQ Index Pollutant
Yesterday Good
PM2.5
Yesterday Good
OZONE
Current Good
PM2.5
Sunday Good
PM2.5
Sunday Good
OZONE

Snow Depth

Station Depth Elevation
No new snow has been reported.

Earthquake Activity

City Distance Mag. Time & Date
No recent earthquake activity has been reported nearby.
Minimum magnitude displayed is 2.5.

Coastal Water Temperatures

Place Temperature
Newport, RI 68.0 °F
Quonset Point, RI 68.0 °F
Conimicut Light, RI 68.0 °F

Nearby Weather Stations